Terminal Aerodrome Forecast
Issued by NWS Cleveland, OH

Home | Current Version | Previous Version | Graphics & Text | Print | Product List | Glossary On
Versions: 1 2 3 4 5 6 7 8 9 10 11 12 13 14 15 16 17 18 19 20 21 22 23 24 25
000
FTUS41 KCLE 220200 AAA
TAFCLE
TAF AMD
KCLE 220257Z 2203/2306 25011KT P6SM BKN080
     FM220400 23010KT P6SM VCSH BKN060
     FM221100 25012G20KT P6SM BKN040 OVC060
     FM221500 27020G30KT P6SM OVC050=

USA.gov is the U.S. government's official web portal to all federal, state and local government web resources and services.